岩国飛行場の過去48時間の天気

岩国飛行場 (Iwakuni)

現在時刻: 1/23 13:16 JST (1/23 04:16 UTC) 以下の時間は現地時間です。

過去48時間のMETAR気象情報
時間 風向 風速(m/s) 視程 気温(℃) 湿度(%) 気圧(hPa) 天気現象
23 12:55 西 7 10km以上 7.2 53 1015.1
23 11:55 西 6 10km以上 6.7 67 1016 弱い雨
23 10:55 西 8 10km以上 7.8 55 1015.7
23 09:55 西南西 7 10km以上 7.8 53 1015.3
23 08:55 西南西 6 8,000m 7.2 63 1014.9 煙霧
23 07:55 南西 6 8,000m 7.2 63 1013.9 煙霧
23 06:55 西南西 6 6,000m 7.2 63 1013.4 煙霧
23 05:55 西 6 9,000m 7.8 68 1012.6 煙霧
23 04:55 南西 5 10km以上 7.2 82 1012 弱いしゅう雨
23 03:55 西 4 10km以上 7.2 80 1012.4
23 02:55 静穏 0 10km以上 4.4 93 1012.3 弱いしゅう雨
23 01:55 北西 2 10km以上 5 89 1012.2
23 00:55 静穏 0 10km以上 3.3 92 1012.7
22 23:55 2 10km以上 2.8 92 1013.3
22 22:55 北北西 3 10km以上 2.2 92 1013.7
22 21:55 不定 2 10km以上 2.2 96 1014.3
22 20:55 西北西 3 10km以上 2.8 92 1014
22 19:55 西北西 3 10km以上 2.2 96 1014
22 18:55 西 2 10km以上 2.8 92 1014.1
22 17:55 静穏 0 10km以上 3.9 89 1014
22 16:55 西 3 10km以上 5 86 1013.3
22 15:55 北北東 4 10km以上 5.6 82 1012.9
22 14:55 4 10km以上 4.4 89 1012.5
22 13:55 北西 2 8,000m 3.3 92 1012.4 弱いしゅう雨 もや
22 12:55 4 6,000m 2.2 96 1012.8 弱いしゅう雨 弱いしゅう雪 もや
22 11:55 4 4,000m 1.7 96 1014.2 しゅう雨 しゅう雪 もや
22 10:55 4 4,000m 1.7 96 1015.9 弱い雨 弱い雪 もや
22 10:39 4 4,000m 2 93 1016.2 弱い雨 弱い雪 もや
22 09:55 北東 4 6,000m 3.3 89 1016.8 雨 もや
22 08:55 北北東 6 6,000m 3.9 89 1017.1 弱い雨 もや
22 07:55 北東 5 8,000m 5.6 76 1016.6 弱い雨
22 06:55 北北東 5 10km以上 7.2 56 1016.4 弱い雨
22 05:55 北北東 7 10km以上 7.2 58 1016
22 04:55 北北東 6 10km以上 6.7 58 1017
RJOI 230355Z 27013G22KT 9999 FEW015 SCT040 SCT210 07/M02 A2998 RMK PK WND 29026/0326 RAE09 SLP151 P0000 T00721017
RJOI 230255Z 26012G21KT 9999 -RA SCT015 BKN040 07/01 A3001 RMK RAB10 SLP160 P0000 60000 T00670011 51014
RJOI 230155Z 26015G20KT 9999 BKN040 08/M01 A3000 RMK SLP157 T00781006
RJOI 230055Z 25014G18KT 9999 FEW040 08/M01 A2998 RMK SLP153 T00781011
RJOI 222355Z 24012G24KT 8000 HZ FEW040 07/01 A2997 RMK SLP149 60000 T00720006 10078 20044 53020
RJOI 222255Z COR 23012G21KT 8000 HZ FEW040 07/01 A2994 RMK SLP139 T00720006
RJOI 222155Z 25011KT 6000 HZ FEW040 07/01 A2993 RMK SLP134 T00720006
RJOI 222055Z 26011G20KT 9000 HZ FEW020 SCT040 08/02 A2991 RMK SHRAE1959 SLP126 WR P0000 60001 T00780022 55000
RJOI 221955Z 23009G15KT 9999 -SHRA FEW020 BKN050 BKN070 07/04 A2989 RMK SHRAB21 SLP120 P0000 T00720044
RJOI 221855Z 26008KT 9999 FEW020 BKN035 BKN070 07/04 A2990 RMK SHRAE45 SLP124 P0001 T00720039
RJOI 221755Z 00000KT 9999 -SHRA FEW020 BKN035 OVC045 04/03 A2990 RMK SHRAB44 SLP123 P0000 60000 T00440033 10050 20022 55007
RJOI 221655Z 32003KT 9999 FEW030 BKN055 BKN075 05/03 A2989 RMK SLP122 T00500033
RJOI 221555Z 00000KT 9999 FEW030 SCT050 BKN065 03/02 A2991 RMK SLP127 T00330022
RJOI 221455Z 36004KT 9999 FEW020 FEW040 03/02 A2992 RMK SLP133 T00280017 400720017 58007
RJOI 221355Z 33005KT 9999 FEW020 FEW040 02/01 A2994 RMK SLP137 T00220011
RJOI 221255Z VRB03KT 9999 FEW020 02/02 A2996 RMK SLP143 T00220017
RJOI 221155Z 29006KT 9999 FEW015 FEW040 03/02 A2994 RMK SLP140 70074 T00280017 10056 20022 50000
RJOI 221055Z 30006KT 9999 FEW015 FEW040 02/02 A2995 RMK SLP140 T00220017
RJOI 220955Z 28004KT 9999 FEW015 FEW025 SCT045 03/02 A2995 RMK SLP141 T00280017
RJOI 220855Z 00000KT 9999 FEW015 FEW025 BKN045 04/02 A2995 RMK SLP140 T00390022 53014
RJOI 220755Z 28005KT 9999 FEW015 BKN030 BKN045 05/03 A2992 RMK SLP133 T00500028
RJOI 220655Z 02008KT 9999 FEW010 SCT025 SCT100 06/03 A2991 RMK SLP129 T00560028
RJOI 220555Z 35007KT 9999 FEW010 BKN025 OVC040 04/03 A2990 RMK SHRAE38 SLP125 P0002 60062 T00440028 10044 20017 56017
RJOI 220455Z 31003KT 8000 -SHRA BR SCT010 BKN025 OVC040 03/02 A2990 RMK SNE06 SLP124 P0007 T00330022
RJOI 220355Z 35008KT 6000 -SHRASN BR SCT008 BKN010 OVC030 02/02 A2991 RMK SLP128 P0014 T00220017
RJOI 220255Z 35008KT 4000 SHRASN BR SCT008 BKN010 OVC030 02/01 A2995 RMK SLP142 P0011 60039 T00170011 58027
RJOI 220155Z 35007KT 4000 -RASN BR SCT008 BKN010 OVC030 02/01 A3000 RMK SNB30 SLP159 P0010 T00170011
RJOI 220139Z COR 35007KT 4000 -RASN BR SCT008 BKN010 OVC030 02/01 A3001 RMK SLP162
RJOI 220055Z 04008KT 6000 RA BR FEW010 BKN015 OVC035 03/02 A3003 RMK SLP168 P0018 T00330017
RJOI 212355Z 03011KT 6000 -RA BR SCT015 BKN025 OVC035 04/02 A3004 RMK SLP171 P0010 60012 T00390022 10072 20039 52010
RJOI 212255Z 05010KT 8000 -RA SCT015 BKN030 OVC040 06/02 A3002 RMK SLP166 P0002 T00560017
RJOI 212155Z 02009KT 9999 -RA SCT030 BKN045 OVC080 07/M01 A3002 RMK RAB45 SLP164 P0000 T00721011
RJOI 212055Z 03013KT 9999 FEW035 BKN080 OVC120 07/M01 A3001 RMK SLP160 T00721006 58020
RJOI 211955Z 02012KT 9999 FEW045 BKN100 OVC200 07/M01 A3003 RMK SLP170 T00671011